Time;durP1;ratioP1;P1;durP2;ratioP2;P2;SDS_P1;SDS_P2;PMS_P1;PMS_P2;Temp;Humidity;BMP_temperature;BMP_pressure;BME280_temperature;BME280_humidity;BME280_pressure;Samples;Min_cycle;Max_cycle;Signal;HPM_P1;HPM_P2
2023/04/24 00:01:16;;;;;;;10.10;5.80;;;;;;;15.11;61.92;100230.13;4954744;28;20049;-42
2023/04/24 00:03:42;;;;;;;9.15;6.35;;;;;;;15.09;61.87;100226.78;4960255;28;24797;-42
2023/04/24 00:06:08;;;;;;;11.05;6.15;;;;;;;15.08;61.91;100214.50;4953767;28;20049;-42
2023/04/24 00:08:34;;;;;;;10.30;6.55;;;;;;;15.09;62.31;100216.19;4956465;28;20097;-41
2023/04/24 00:11:00;;;;;;;10.80;6.15;;;;;;;15.06;62.11;100208.47;4960236;28;20181;-42
2023/04/24 00:13:25;;;;;;;11.93;7.65;;;;;;;15.06;62.09;100205.84;4956267;28;21727;-42
2023/04/24 00:15:51;;;;;;;11.48;6.70;;;;;;;15.06;62.01;100205.84;4956393;28;20043;-42
2023/04/24 00:18:17;;;;;;;9.60;6.65;;;;;;;15.05;62.10;100206.84;4964518;28;20031;-42
2023/04/24 00:20:43;;;;;;;12.27;6.07;;;;;;;15.06;61.85;100200.53;4952687;28;20039;-41
2023/04/24 00:23:09;;;;;;;11.65;6.68;;;;;;;15.07;61.80;100197.78;4965226;28;20031;-42
2023/04/24 00:25:35;;;;;;;12.20;7.90;;;;;;;15.06;61.82;100196.09;4949019;28;20652;-42
2023/04/24 00:28:00;;;;;;;10.15;6.68;;;;;;;15.06;61.87;100195.22;4961981;28;20046;-41
2023/04/24 00:30:25;;;;;;;10.75;7.15;;;;;;;15.08;61.86;100193.31;4958682;28;20108;-43
2023/04/24 00:32:51;;;;;;;12.48;6.78;;;;;;;15.04;61.94;100183.97;4954848;28;20038;-42
2023/04/24 00:35:16;;;;;;;13.13;6.90;;;;;;;15.08;61.64;100180.06;4958020;28;20035;-43
2023/04/24 00:37:42;;;;;;;9.73;6.25;;;;;;;15.07;61.81;100183.66;4963726;28;20031;-41
2023/04/24 00:40:08;;;;;;;9.85;6.25;;;;;;;15.07;61.84;100175.72;4948341;28;20031;-42
2023/04/24 00:42:34;;;;;;;10.27;5.90;;;;;;;15.04;61.90;100173.34;4962937;28;20031;-42
2023/04/24 00:45:00;;;;;;;11.30;6.30;;;;;;;15.12;61.66;100170.88;4957290;28;20027;-41
2023/04/24 00:47:26;;;;;;;11.95;7.13;;;;;;;15.04;61.89;100170.72;4951310;28;20132;-42
2023/04/24 00:49:52;;;;;;;10.88;6.40;;;;;;;14.92;62.18;100168.13;4959914;28;20037;-42
2023/04/24 00:52:17;;;;;;;9.38;6.18;;;;;;;14.89;62.32;100165.75;4953875;28;20043;-41
2023/04/24 00:54:46;;;;;;;10.88;6.20;;;;;;;14.99;62.13;100172.91;4956089;28;20037;-42
2023/04/24 00:57:14;;;;;;;12.48;6.13;;;;;;;14.93;62.18;100169.78;4962290;28;20061;-42
2023/04/24 00:59:41;;;;;;;11.55;6.65;;;;;;;14.91;62.25;100150.53;4957429;28;20110;-42
2023/04/24 01:02:08;;;;;;;11.05;6.20;;;;;;;14.91;62.52;100147.06;4956004;28;20086;-42
2023/04/24 01:04:34;;;;;;;8.13;5.60;;;;;;;14.86;62.50;100149.25;4955469;28;20602;-42
2023/04/24 01:07:00;;;;;;;9.70;6.53;;;;;;;14.83;62.57;100146.88;4956809;28;20042;-42
2023/04/24 01:09:26;;;;;;;12.00;6.90;;;;;;;14.80;62.76;100137.38;4950784;28;20043;-42
2023/04/24 01:11:52;;;;;;;9.55;5.53;;;;;;;14.80;62.81;100142.69;4958089;28;20073;-42
2023/04/24 01:14:18;;;;;;;9.32;5.68;;;;;;;14.83;62.79;100130.97;4954955;28;20077;-42
2023/04/24 01:16:44;;;;;;;7.50;3.72;;;;;;;14.85;62.69;100129.91;4962238;28;20455;-42
2023/04/24 01:19:10;;;;;;;10.63;6.25;;;;;;;14.89;62.42;100130.47;4961225;28;20061;-41
2023/04/24 01:21:37;;;;;;;10.82;5.70;;;;;;;14.84;62.74;100124.72;4969348;28;20034;-42
2023/04/24 01:24:04;;;;;;;9.50;6.70;;;;;;;14.87;62.51;100116.50;4958878;28;20041;-42
2023/04/24 01:26:30;;;;;;;11.93;6.68;;;;;;;14.82;62.59;100124.84;4960033;28;20394;-41
2023/04/24 01:28:56;;;;;;;9.38;5.88;;;;;;;14.83;62.60;100117.72;4956071;28;20544;-42
2023/04/24 01:31:22;;;;;;;9.50;6.20;;;;;;;14.81;62.89;100122.34;4962613;28;20489;-42
2023/04/24 01:33:47;;;;;;;9.68;7.03;;;;;;;14.75;62.99;100118.38;4959536;28;20030;-42
2023/04/24 01:36:14;;;;;;;10.88;6.20;;;;;;;14.76;62.88;100122.72;4951894;28;20056;-42
2023/04/24 01:38:39;;;;;;;10.88;6.00;;;;;;;14.74;62.98;100124.69;4958124;28;20038;-45
2023/04/24 01:41:05;;;;;;;10.60;6.57;;;;;;;14.71;63.10;100119.66;4955167;28;20043;-42
2023/04/24 01:43:31;;;;;;;10.40;6.43;;;;;;;14.71;63.20;100117.00;4960084;28;20035;-41
2023/04/24 01:45:57;;;;;;;8.48;5.82;;;;;;;14.72;63.10;100116.03;4960430;28;20043;-44
2023/04/24 01:48:22;;;;;;;10.32;6.30;;;;;;;14.77;62.99;100116.44;4951314;28;20042;-42
2023/04/24 01:50:48;;;;;;;10.90;6.45;;;;;;;14.80;63.03;100115.38;4958921;28;20031;-41
2023/04/24 01:53:13;;;;;;;11.02;6.13;;;;;;;14.74;63.10;100114.09;4950809;28;22173;-41
2023/04/24 01:55:38;;;;;;;10.57;6.68;;;;;;;14.77;63.03;100108.50;4955975;28;20042;-41
2023/04/24 01:58:04;;;;;;;13.40;6.38;;;;;;;14.74;62.77;100100.84;4953397;28;20039;-41
2023/04/24 02:00:30;;;;;;;13.38;6.18;;;;;;;14.72;63.12;100095.66;4951600;28;20067;-42
2023/04/24 02:02:55;;;;;;;12.77;6.35;;;;;;;14.71;63.37;100101.09;4956793;28;20027;-41
2023/04/24 02:05:21;;;;;;;9.88;6.63;;;;;;;14.73;63.10;100099.16;4955086;28;20212;-43
2023/04/24 02:07:46;;;;;;;11.43;5.72;;;;;;;14.70;63.33;100086.19;4956261;28;20089;-42
2023/04/24 02:10:12;;;;;;;9.13;5.97;;;;;;;14.70;63.38;100088.84;4961763;28;20042;-42
2023/04/24 02:12:37;;;;;;;9.27;5.80;;;;;;;14.73;63.20;100086.75;4958353;28;20039;-41
2023/04/24 02:15:03;;;;;;;8.55;5.88;;;;;;;14.78;62.99;100087.22;4959995;28;20035;-41
2023/04/24 02:17:29;;;;;;;10.18;6.63;;;;;;;14.78;63.05;100073.13;4956825;28;20061;-42
2023/04/24 02:19:54;;;;;;;7.93;5.82;;;;;;;14.78;62.73;100071.31;4954907;28;20031;-41
2023/04/24 02:22:20;;;;;;;10.32;5.75;;;;;;;14.72;63.56;100071.00;4952333;28;20657;-41
2023/04/24 02:24:45;;;;;;;8.73;5.38;;;;;;;14.72;63.51;100065.72;4954661;28;20436;-42
2023/04/24 02:27:11;;;;;;;10.70;5.97;;;;;;;14.76;63.23;100067.09;4953106;28;21086;-42
2023/04/24 02:29:36;;;;;;;9.15;5.30;;;;;;;14.81;63.20;100059.63;4956680;28;20022;-42
2023/04/24 02:32:02;;;;;;;10.18;5.65;;;;;;;14.82;63.29;100056.00;4958522;28;20481;-42
2023/04/24 02:34:27;;;;;;;11.13;6.25;;;;;;;14.83;63.05;100044.44;4965127;28;20359;-42
2023/04/24 02:36:56;;;;;;;8.82;5.30;;;;;;;14.82;62.95;100053.34;4954911;28;20031;-42
2023/04/24 02:39:22;;;;;;;10.23;6.30;;;;;;;14.82;63.27;100041.94;4958954;28;20035;-42
2023/04/24 02:41:47;;;;;;;8.57;5.55;;;;;;;14.78;63.28;100036.88;4960400;28;20445;-41
2023/04/24 02:44:13;;;;;;;10.80;6.07;;;;;;;14.82;63.31;100034.81;4956593;28;20426;-42
2023/04/24 02:46:38;;;;;;;9.55;6.03;;;;;;;14.81;63.00;100035.78;4963244;28;20035;-41
2023/04/24 02:49:03;;;;;;;5.75;3.58;;;;;;;14.83;63.08;100028.53;4958228;28;20029;-42
2023/04/24 02:51:29;;;;;;;8.95;6.15;;;;;;;14.82;62.83;100029.50;4949457;28;20113;-41
2023/04/24 02:53:55;;;;;;;9.50;5.72;;;;;;;14.86;62.39;100030.06;4959392;28;20105;-42
2023/04/24 02:56:21;;;;;;;10.25;5.80;;;;;;;14.79;63.03;100035.06;4953250;28;20046;-42
2023/04/24 02:58:46;;;;;;;10.23;6.60;;;;;;;14.77;63.12;100037.00;4959213;28;20030;-43
2023/04/24 03:01:11;;;;;;;10.55;6.43;;;;;;;14.77;63.07;100040.50;4959875;28;20042;-42
2023/04/24 03:03:38;;;;;;;10.02;6.22;;;;;;;14.79;63.10;100035.06;4958891;28;20054;-42
2023/04/24 03:06:05;;;;;;;10.07;6.32;;;;;;;14.80;62.88;100026.16;4955673;28;20117;-42
2023/04/24 03:08:31;;;;;;;9.55;6.60;;;;;;;14.82;62.97;100021.56;4955030;28;20417;-42
2023/04/24 03:10:57;;;;;;;10.68;5.97;;;;;;;14.80;62.98;100022.69;4956151;28;20065;-43
2023/04/24 03:13:22;;;;;;;7.53;5.63;;;;;;;14.80;63.01;100012.91;4953986;28;20389;-42
2023/04/24 03:15:48;;;;;;;10.65;7.32;;;;;;;14.77;62.95;100014.03;4953283;28;20050;-42
2023/04/24 03:18:13;;;;;;;17.10;11.45;;;;;;;14.81;62.78;100009.28;4959528;28;20753;-41
2023/04/24 03:20:39;;;;;;;18.58;10.48;;;;;;;14.82;62.83;100008.31;4958872;28;20022;-41
2023/04/24 03:23:04;;;;;;;21.85;12.27;;;;;;;14.82;62.69;100012.78;4954291;28;20036;-43
2023/04/24 03:25:29;;;;;;;14.02;8.07;;;;;;;14.75;62.94;100007.16;4958420;28;20038;-42
2023/04/24 03:27:55;;;;;;;10.23;6.35;;;;;;;14.72;63.24;100010.94;4958398;28;20034;-42
2023/04/24 03:30:21;;;;;;;11.15;6.80;;;;;;;14.71;63.15;100009.25;4958382;28;20031;-42
2023/04/24 03:32:46;;;;;;;14.85;6.40;;;;;;;14.71;63.01;100008.44;4956481;28;20026;-42
2023/04/24 03:35:12;;;;;;;10.77;5.97;;;;;;;14.68;63.07;100016.63;4952584;28;20039;-42
2023/04/24 03:37:37;;;;;;;13.90;6.97;;;;;;;14.58;63.58;100021.84;4949396;28;20501;-42
2023/04/24 03:40:03;;;;;;;10.80;6.30;;;;;;;14.54;63.51;100016.00;4965260;28;20027;-41
2023/04/24 03:42:28;;;;;;;9.82;6.75;;;;;;;14.54;63.70;100016.00;4955928;28;20562;-41
2023/04/24 03:44:54;;;;;;;19.63;9.05;;;;;;;14.55;63.66;100017.66;4954217;28;20141;-42
2023/04/24 03:47:19;;;;;;;13.20;6.85;;;;;;;14.54;63.38;100018.63;4949095;28;20070;-42
2023/04/24 03:49:45;;;;;;;17.02;9.20;;;;;;;14.54;63.44;100015.13;4959739;28;20363;-42
2023/04/24 03:52:10;;;;;;;30.55;15.70;;;;;;;14.58;63.57;100022.72;4965053;28;21058;-41
2023/04/24 03:54:36;;;;;;;12.55;7.60;;;;;;;14.56;63.55;100014.06;4954290;28;20367;-42
2023/04/24 03:57:01;;;;;;;11.63;7.07;;;;;;;14.55;63.46;100009.72;4962066;28;20038;-43
2023/04/24 03:59:27;;;;;;;11.63;7.25;;;;;;;14.55;63.58;100015.03;4957249;28;20030;-42
2023/04/24 04:01:52;;;;;;;12.20;7.80;;;;;;;14.61;63.37;100005.69;4961520;28;20834;-44
2023/04/24 04:04:18;;;;;;;11.30;7.65;;;;;;;14.61;63.36;100011.81;4978898;28;20497;-43
2023/04/24 04:06:46;;;;;;;12.20;7.65;;;;;;;14.66;63.56;100007.94;4952204;28;20035;-42
2023/04/24 04:09:12;;;;;;;12.90;7.80;;;;;;;14.64;63.64;100014.22;4962790;28;20042;-42
2023/04/24 04:11:37;;;;;;;13.60;8.13;;;;;;;14.64;63.58;100016.84;4962416;28;20141;-41
2023/04/24 04:14:03;;;;;;;11.80;8.23;;;;;;;14.70;63.75;100017.34;4964065;28;20493;-42
2023/04/24 04:16:28;;;;;;;12.43;8.07;;;;;;;14.72;63.64;100018.88;4959516;28;20043;-42
2023/04/24 04:18:54;;;;;;;13.77;8.35;;;;;;;14.77;64.00;100021.13;4953554;28;20233;-42
2023/04/24 04:21:19;;;;;;;14.73;9.43;;;;;;;14.84;63.83;100013.47;4954503;28;20036;-42
2023/04/24 04:23:45;;;;;;;16.58;9.70;;;;;;;14.84;64.10;100016.97;4961761;28;20526;-42
2023/04/24 04:26:12;;;;;;;15.13;10.00;;;;;;;14.96;63.91;100015.06;4953585;28;20034;-42
2023/04/24 04:28:38;;;;;;;13.05;8.70;;;;;;;14.92;64.19;100014.47;4960107;28;20125;-42
2023/04/24 04:31:04;;;;;;;10.60;7.32;;;;;;;14.99;64.47;100014.78;4954379;28;20035;-41
2023/04/24 04:33:30;;;;;;;12.00;8.05;;;;;;;15.06;64.25;100020.38;4957871;28;20116;-43
2023/04/24 04:35:58;;;;;;;15.77;8.43;;;;;;;15.09;64.30;100007.72;4963460;28;20651;-42
2023/04/24 04:38:24;;;;;;;18.50;9.90;;;;;;;15.13;64.51;100015.38;4951724;28;20625;-42
2023/04/24 04:40:49;;;;;;;14.60;10.57;;;;;;;15.19;64.30;100010.38;4962248;28;20034;-43
2023/04/24 04:43:15;;;;;;;13.23;8.48;;;;;;;15.29;64.19;100007.72;4958321;28;20410;-42
2023/04/24 04:45:43;;;;;;;12.18;8.25;;;;;;;15.38;64.21;100014.00;4961559;28;20038;-41
2023/04/24 04:48:09;;;;;;;11.23;6.97;;;;;;;15.37;64.33;100015.00;4948457;28;20031;-41
2023/04/24 04:50:35;;;;;;;15.63;7.97;;;;;;;15.46;64.18;100011.53;4964952;28;20169;-41
2023/04/24 04:53:00;;;;;;;10.38;8.25;;;;;;;15.48;64.20;100011.38;4957257;28;20051;-41
2023/04/24 04:55:26;;;;;;;16.27;10.25;;;;;;;15.52;64.07;100010.97;4962084;28;20026;-42
2023/04/24 04:57:52;;;;;;;22.60;12.27;;;;;;;15.58;63.93;100014.03;4962244;28;20405;-41
2023/04/24 05:00:17;;;;;;;18.63;11.55;;;;;;;15.54;64.18;100019.63;4967063;28;20038;-41
2023/04/24 05:02:43;;;;;;;13.90;8.77;;;;;;;15.57;64.38;100017.66;4958639;28;20027;-41
2023/04/24 05:05:09;;;;;;;17.23;8.80;;;;;;;15.58;64.27;100017.50;4954862;28;20041;-41
2023/04/24 05:07:34;;;;;;;12.27;8.38;;;;;;;15.60;64.40;100017.41;4963849;28;20030;-41
2023/04/24 05:10:00;;;;;;;14.80;7.95;;;;;;;15.63;64.27;100014.47;4964536;28;20058;-42
2023/04/24 05:12:26;;;;;;;13.93;7.93;;;;;;;15.66;64.41;100014.16;4964256;28;20038;-41
2023/04/24 05:14:52;;;;;;;9.50;5.07;;;;;;;15.65;64.54;100015.19;4959188;28;20096;-42
2023/04/24 05:17:18;;;;;;;15.77;9.65;;;;;;;15.65;64.57;100009.88;4960914;28;20030;-41
2023/04/24 05:19:43;;;;;;;15.38;8.75;;;;;;;15.68;64.60;100009.56;4955663;28;20027;-41
2023/04/24 05:22:09;;;;;;;14.68;8.45;;;;;;;15.70;64.58;100003.16;4965452;28;20049;-41
2023/04/24 05:24:35;;;;;;;14.63;10.05;;;;;;;15.75;64.58;99999.22;4962935;28;20026;-43
2023/04/24 05:27:02;;;;;;;14.18;8.57;;;;;;;15.76;64.70;100004.41;4962763;28;20066;-41
2023/04/24 05:29:30;;;;;;;15.55;8.65;;;;;;;15.80;64.55;100007.63;4964013;28;20453;-41
2023/04/24 05:31:56;;;;;;;12.88;8.40;;;;;;;15.82;64.49;100013.63;4965761;28;20398;-41
2023/04/24 05:34:21;;;;;;;11.48;7.28;;;;;;;15.81;64.55;100015.44;4959741;28;20035;-41
2023/04/24 05:36:46;;;;;;;17.00;8.00;;;;;;;15.84;64.58;100015.16;4960337;28;21213;-41
2023/04/24 05:39:12;;;;;;;11.80;7.97;;;;;;;15.87;64.73;100015.88;4959953;28;20109;-41
2023/04/24 05:41:37;;;;;;;9.98;7.28;;;;;;;15.83;64.71;100012.66;4957718;28;20034;-41
2023/04/24 05:44:03;;;;;;;16.48;9.13;;;;;;;15.82;64.53;100014.44;4968579;28;20037;-41
2023/04/24 05:46:28;;;;;;;13.35;7.53;;;;;;;15.81;64.70;100010.13;4962584;28;20039;-42
2023/04/24 05:48:54;;;;;;;13.30;8.52;;;;;;;15.81;64.96;100011.94;4958504;28;20639;-41
2023/04/24 05:51:19;;;;;;;10.30;7.18;;;;;;;15.83;64.79;100012.66;4965668;28;20035;-41
2023/04/24 05:53:44;;;;;;;11.43;7.03;;;;;;;15.87;64.77;100016.72;4969794;28;20042;-41
2023/04/24 05:56:10;;;;;;;12.52;7.40;;;;;;;15.90;64.56;100020.91;4966805;28;20416;-43
2023/04/24 05:58:37;;;;;;;10.73;7.00;;;;;;;15.95;64.81;100026.66;4961269;28;20041;-43
2023/04/24 06:01:03;;;;;;;12.75;7.50;;;;;;;15.94;64.78;100022.31;4957302;28;20121;-41
2023/04/24 06:03:28;;;;;;;13.38;7.38;;;;;;;15.93;64.59;100025.94;4964884;28;20037;-41
2023/04/24 06:05:54;;;;;;;12.43;7.38;;;;;;;15.96;64.71;100029.13;4966005;28;20031;-42
2023/04/24 06:08:19;;;;;;;12.65;8.23;;;;;;;16.03;64.66;100023.28;4958954;28;20035;-42
2023/04/24 06:10:45;;;;;;;15.27;8.35;;;;;;;16.07;64.55;100030.81;4956878;28;20026;-42
2023/04/24 06:13:11;;;;;;;9.63;6.35;;;;;;;16.05;64.63;100030.09;4967297;28;20034;-41
2023/04/24 06:15:36;;;;;;;9.63;7.07;;;;;;;16.06;64.61;100026.47;4961662;28;20118;-41
2023/04/24 06:18:02;;;;;;;11.40;6.75;;;;;;;16.06;64.60;100029.13;4966096;28;20035;-41
2023/04/24 06:20:28;;;;;;;11.38;7.03;;;;;;;16.08;64.37;100024.53;4957452;28;20093;-41
2023/04/24 06:22:53;;;;;;;10.57;6.82;;;;;;;16.02;64.56;100029.56;4955033;28;20038;-43
2023/04/24 06:25:19;;;;;;;11.82;6.50;;;;;;;15.91;64.83;100034.03;4958338;28;20042;-41
2023/04/24 06:27:45;;;;;;;12.35;5.95;;;;;;;15.85;64.74;100027.47;4957729;28;20086;-41
2023/04/24 06:30:10;;;;;;;8.98;6.10;;;;;;;15.82;64.84;100022.41;4965463;28;20038;-41
2023/04/24 06:32:36;;;;;;;9.38;6.38;;;;;;;15.84;64.74;100019.63;4955497;28;20101;-42
2023/04/24 06:35:01;;;;;;;8.45;6.25;;;;;;;15.83;64.78;100024.09;4959672;28;20112;-41
2023/04/24 06:37:27;;;;;;;12.10;6.30;;;;;;;15.85;64.88;100024.81;4957728;28;20505;-41
2023/04/24 06:39:52;;;;;;;7.95;5.88;;;;;;;15.83;64.83;100029.38;4957113;28;20035;-41
2023/04/24 06:42:20;;;;;;;9.15;5.80;;;;;;;15.74;65.32;100035.53;4957177;28;20030;-43
2023/04/24 06:44:46;;;;;;;12.60;7.00;;;;;;;15.67;65.36;100040.56;4961333;28;20034;-41
2023/04/24 06:47:13;;;;;;;13.13;7.78;;;;;;;15.70;65.42;100035.00;4960923;28;20041;-42
2023/04/24 06:49:39;;;;;;;11.68;6.55;;;;;;;15.67;65.50;100029.97;4953185;28;20517;-41
2023/04/24 06:52:06;;;;;;;9.18;6.43;;;;;;;15.62;65.84;100026.88;4954167;28;20034;-41
2023/04/24 06:54:32;;;;;;;10.73;6.88;;;;;;;15.61;65.72;100027.03;4955700;28;20039;-42
2023/04/24 06:56:57;;;;;;;10.43;5.90;;;;;;;15.70;65.53;100026.19;4955207;28;20031;-42
2023/04/24 06:59:24;;;;;;;10.13;6.22;;;;;;;15.69;65.69;100022.72;4957355;28;20046;-42
2023/04/24 07:01:50;;;;;;;9.40;5.75;;;;;;;15.66;65.66;100027.44;4961331;28;20030;-41
2023/04/24 07:04:16;;;;;;;8.65;6.55;;;;;;;15.67;65.72;100018.50;4957301;28;20023;-41
2023/04/24 07:06:41;;;;;;;8.85;6.22;;;;;;;15.68;65.71;100012.22;4960971;28;20085;-41
2023/04/24 07:09:08;;;;;;;8.52;6.45;;;;;;;15.71;65.48;100014.59;4960861;28;20041;-41
2023/04/24 07:11:36;;;;;;;9.43;6.38;;;;;;;15.76;65.39;100022.13;4959010;28;20065;-41
2023/04/24 07:14:02;;;;;;;9.43;6.78;;;;;;;15.83;65.15;100024.09;4957686;28;20131;-41
2023/04/24 07:16:28;;;;;;;9.90;6.93;;;;;;;15.88;65.24;100021.06;4960157;28;20063;-41
2023/04/24 07:18:53;;;;;;;9.27;6.50;;;;;;;15.91;65.09;100022.59;4964514;28;20481;-41
2023/04/24 07:21:18;;;;;;;11.70;6.20;;;;;;;15.99;65.00;100022.72;4965934;28;20038;-41
2023/04/24 07:23:44;;;;;;;11.93;6.22;;;;;;;16.01;65.00;100023.41;4962937;28;20397;-41
2023/04/24 07:26:09;;;;;;;12.68;6.35;;;;;;;15.96;65.20;100020.31;4960487;28;20122;-42
2023/04/24 07:28:35;;;;;;;12.93;6.03;;;;;;;15.89;65.48;100021.88;4957510;28;20525;-41
2023/04/24 07:31:00;;;;;;;10.73;6.07;;;;;;;15.90;65.41;100020.91;4959183;28;20449;-42
2023/04/24 07:33:26;;;;;;;10.27;5.80;;;;;;;15.94;65.29;100019.66;4962474;28;20029;-41
2023/04/24 07:35:52;;;;;;;7.97;6.03;;;;;;;15.85;65.18;100016.84;4966170;28;20437;-42
2023/04/24 07:38:22;;;;;;;9.63;5.40;;;;;;;15.93;65.08;100013.50;4969062;28;20030;-41
2023/04/24 07:40:48;;;;;;;10.65;6.32;;;;;;;16.05;64.84;100013.34;4956449;28;20710;-41
2023/04/24 07:43:14;;;;;;;9.65;5.40;;;;;;;16.08;64.75;100021.88;4953916;28;20037;-41
2023/04/24 07:45:39;;;;;;;9.35;5.60;;;;;;;16.08;64.67;100027.19;4961846;28;20078;-41
2023/04/24 07:48:05;;;;;;;9.30;6.28;;;;;;;15.98;64.59;100031.63;4956912;28;20062;-42
2023/04/24 07:50:31;;;;;;;7.53;5.80;;;;;;;15.92;64.75;100026.91;4961253;28;20038;-41
2023/04/24 07:52:57;;;;;;;8.73;5.75;;;;;;;15.99;64.77;100018.25;4963056;28;20027;-41
2023/04/24 07:55:22;;;;;;;8.85;5.85;;;;;;;16.03;64.87;100029.41;4960905;28;20498;-43
2023/04/24 07:57:48;;;;;;;10.38;6.63;;;;;;;16.02;64.90;100026.91;4954367;28;20065;-41
2023/04/24 08:00:14;;;;;;;10.80;6.50;;;;;;;16.09;64.74;100028.84;4961218;28;20513;-41
2023/04/24 08:02:39;;;;;;;9.05;5.80;;;;;;;16.11;64.93;100032.19;4964490;28;20042;-41
2023/04/24 08:05:05;;;;;;;11.20;6.30;;;;;;;16.29;64.36;100032.31;4961422;28;20046;-41
2023/04/24 08:07:31;;;;;;;7.97;5.25;;;;;;;16.34;64.41;100042.50;4960927;28;20049;-40
2023/04/24 08:09:57;;;;;;;10.45;5.32;;;;;;;16.31;64.12;100042.78;4961550;28;20031;-41
2023/04/24 08:12:22;;;;;;;9.80;5.95;;;;;;;16.34;63.97;100045.16;4950370;28;20038;-41
2023/04/24 08:14:48;;;;;;;10.27;5.68;;;;;;;16.33;64.08;100051.44;4954642;28;20402;-41
2023/04/24 08:17:13;;;;;;;10.32;6.38;;;;;;;16.29;64.45;100042.06;4962256;28;20049;-41
2023/04/24 08:19:44;;;;;;;8.70;5.80;;;;;;;16.38;64.24;100043.03;4958462;28;20385;-41
2023/04/24 08:22:09;;;;;;;9.05;5.68;;;;;;;16.39;64.38;100042.91;4960356;28;20527;-41
2023/04/24 08:24:35;;;;;;;10.63;6.30;;;;;;;16.46;63.98;100049.31;4966173;28;20746;-42
2023/04/24 08:27:01;;;;;;;10.40;5.13;;;;;;;16.55;63.94;100039.63;4958740;28;20050;-41
2023/04/24 08:29:26;;;;;;;9.25;5.30;;;;;;;16.67;63.84;100042.97;4961074;28;20118;-42
2023/04/24 08:31:54;;;;;;;8.35;5.32;;;;;;;16.70;63.65;100049.78;4961889;28;20077;-41
2023/04/24 08:34:19;;;;;;;9.13;4.97;;;;;;;16.74;63.55;100043.22;4960617;28;20034;-41
2023/04/24 08:36:45;;;;;;;8.05;4.93;;;;;;;16.77;63.34;100049.06;4960691;28;20441;-42
2023/04/24 08:39:10;;;;;;;7.65;4.80;;;;;;;16.76;62.94;100039.41;4959204;28;20042;-45
2023/04/24 08:41:37;;;;;;;6.13;4.72;;;;;;;16.83;62.75;100044.16;4953290;28;20035;-42
2023/04/24 08:44:03;;;;;;;7.85;3.92;;;;;;;16.87;62.57;100037.53;4959720;28;20036;-41
2023/04/24 08:46:30;;;;;;;9.18;4.80;;;;;;;17.03;62.19;100035.13;4959497;28;20022;-41
2023/04/24 08:48:56;;;;;;;7.97;4.68;;;;;;;17.08;61.93;100039.16;4959943;28;20031;-42
2023/04/24 08:51:23;;;;;;;5.40;3.70;;;;;;;17.19;61.52;100030.97;4961366;28;20698;-41
2023/04/24 08:53:51;;;;;;;7.35;3.95;;;;;;;17.27;61.31;100033.75;4957051;28;20062;-44
2023/04/24 08:56:17;;;;;;;5.22;2.47;;;;;;;17.37;60.57;100029.19;4964423;28;20077;-42
2023/04/24 08:58:43;;;;;;;7.43;3.20;;;;;;;17.54;60.39;100034.66;4964666;28;20056;-44
2023/04/24 09:01:09;;;;;;;6.05;3.30;;;;;;;17.59;60.17;100035.06;4965365;28;20608;-43
2023/04/24 09:03:34;;;;;;;6.68;2.75;;;;;;;17.62;59.56;100037.38;4966720;28;20086;-42
2023/04/24 09:06:01;;;;;;;5.30;2.67;;;;;;;17.70;59.08;100033.97;4966152;28;20050;-42
2023/04/24 09:08:28;;;;;;;6.72;2.63;;;;;;;17.83;58.62;100029.13;4962239;28;20034;-43
2023/04/24 09:10:53;;;;;;;5.97;2.85;;;;;;;17.80;58.70;100033.91;4961521;28;20113;-42
2023/04/24 09:13:20;;;;;;;4.97;2.95;;;;;;;17.94;58.26;100033.34;4969421;28;20037;-42
2023/04/24 09:15:46;;;;;;;5.28;3.05;;;;;;;18.01;58.02;100027.44;4964369;28;20038;-42
2023/04/24 09:18:11;;;;;;;5.07;2.53;;;;;;;18.13;57.96;100023.53;4965902;28;20043;-41
2023/04/24 09:20:59;;;;;;;4.53;2.22;;;;;;;18.26;55.29;100028.47;4967989;28;20050;-41
2023/04/24 09:23:26;;;;;;;5.32;2.50;;;;;;;18.33;56.47;100023.34;4964962;28;20436;-42
2023/04/24 09:25:55;;;;;;;4.05;2.85;;;;;;;18.39;56.48;100028.88;4967602;28;20039;-41
2023/04/24 09:28:29;;;;;;;9.00;4.85;;;;;;;18.47;56.44;100028.09;4967435;28;20031;-42
2023/04/24 09:31:18;;;;;;;3.40;2.00;;;;;;;18.57;54.41;100022.66;4963910;28;20031;-41
2023/04/24 09:34:05;;;;;;;3.85;2.05;;;;;;;18.56;53.33;100018.31;4967867;28;20033;-42
2023/04/24 09:36:36;;;;;;;2.97;1.75;;;;;;;18.55;54.72;100030.78;4960300;28;20508;-42
2023/04/24 09:39:04;;;;;;;4.70;1.67;;;;;;;18.61;54.71;100024.00;4966888;28;20023;-42
2023/04/24 09:41:30;;;;;;;4.70;1.63;;;;;;;18.65;54.28;100033.34;4966730;28;20769;-44
2023/04/24 09:43:56;;;;;;;4.20;1.98;;;;;;;18.73;54.23;100019.22;4964474;28;20554;-42
2023/04/24 09:46:30;;;;;;;3.72;2.10;;;;;;;18.73;53.66;100013.91;4966664;28;20050;-42
2023/04/24 09:48:57;;;;;;;3.97;2.33;;;;;;;18.81;53.97;100021.94;4963031;28;20049;-42
2023/04/24 09:51:49;;;;;;;4.22;1.80;;;;;;;18.85;52.60;100017.13;4963017;28;20051;-42
2023/04/24 09:54:16;;;;;;;6.65;1.80;;;;;;;18.84;53.55;100015.44;4964789;28;20042;-42
2023/04/24 09:56:46;;;;;;;4.22;2.70;;;;;;;18.87;53.33;100023.94;4958850;28;20171;-42
2023/04/24 09:59:13;;;;;;;6.20;1.83;;;;;;;18.86;53.27;100022.28;4961919;28;20031;-44
2023/04/24 10:01:41;;;;;;;3.60;2.00;;;;;;;18.85;53.32;100011.78;4965340;28;20058;-42
2023/04/24 10:04:16;;;;;;;3.63;1.90;;;;;;;18.95;52.58;100023.19;4962614;28;20039;-41
2023/04/24 10:06:43;;;;;;;4.43;2.33;;;;;;;19.02;53.32;100018.88;4961908;28;20062;-43
2023/04/24 10:09:11;;;;;;;5.45;2.08;;;;;;;19.09;53.04;100020.88;4963748;28;20035;-42
2023/04/24 10:11:37;;;;;;;4.07;2.47;;;;;;;19.11;52.75;100022.41;4963176;28;20030;-42
2023/04/24 10:14:03;;;;;;;2.72;1.73;;;;;;;19.12;52.59;100013.41;4960118;28;20449;-42
2023/04/24 10:16:31;;;;;;;1.65;1.00;;;;;;;19.14;52.59;100016.72;4963626;28;20106;-42
2023/04/24 10:19:00;;;;;;;4.32;1.73;;;;;;;19.17;52.37;100021.75;4966304;28;20113;-42
2023/04/24 10:21:26;;;;;;;3.97;1.75;;;;;;;19.21;52.19;100027.59;4961974;28;20030;-43
2023/04/24 10:23:53;;;;;;;2.35;1.42;;;;;;;19.25;51.93;100023.59;4961021;28;20085;-43
2023/04/24 10:26:20;;;;;;;3.67;2.15;;;;;;;19.25;52.10;100028.13;4962334;28;20067;-41
2023/04/24 10:28:46;;;;;;;3.17;1.75;;;;;;;19.29;51.68;100024.09;4963335;28;20051;-41
2023/04/24 10:31:13;;;;;;;5.57;1.65;;;;;;;19.32;51.80;100021.13;4964272;28;20497;-42
2023/04/24 10:33:43;;;;;;;5.13;1.95;;;;;;;19.38;51.28;100022.28;4961171;28;20043;-42
2023/04/24 10:36:11;;;;;;;1.88;1.20;;;;;;;19.44;51.58;100033.13;4960959;28;20041;-42
2023/04/24 10:38:40;;;;;;;3.78;1.52;;;;;;;19.59;51.70;100025.34;4962003;28;20042;-41
2023/04/24 10:41:15;;;;;;;6.07;1.73;;;;;;;19.66;51.46;100025.50;4965122;28;20106;-42
2023/04/24 10:43:41;;;;;;;4.45;1.50;;;;;;;19.69;50.82;100025.19;4962834;28;20027;-41
2023/04/24 10:46:09;;;;;;;2.85;1.30;;;;;;;19.68;50.54;100028.00;4968191;28;20931;-42
2023/04/24 10:48:35;;;;;;;3.50;1.60;;;;;;;19.72;50.67;100018.66;4967378;28;20397;-42
2023/04/24 10:51:01;;;;;;;4.03;1.33;;;;;;;19.75;50.83;100023.69;4963210;28;20497;-42
2023/04/24 10:53:29;;;;;;;3.72;1.60;;;;;;;19.82;50.65;100024.66;4964777;28;20039;-42
2023/04/24 10:56:03;;;;;;;4.50;1.40;;;;;;;19.67;50.54;100021.84;4964188;28;20107;-42
2023/04/24 10:58:46;;;;;;;2.65;1.10;;;;;;;19.70;48.39;100029.53;4962421;28;20081;-43
2023/04/24 11:01:30;;;;;;;2.78;1.20;;;;;;;19.57;48.22;100029.19;4963998;28;20085;-43
2023/04/24 11:03:58;;;;;;;2.28;1.17;;;;;;;19.57;49.55;100032.66;4966749;28;20038;-42
2023/04/24 11:06:35;;;;;;;2.95;1.02;;;;;;;19.62;49.14;100018.81;4966343;28;20103;-43
2023/04/24 11:09:07;;;;;;;4.53;1.00;;;;;;;19.70;49.43;100021.50;4966865;28;20034;-43
2023/04/24 11:11:33;;;;;;;2.92;0.90;;;;;;;19.70;48.86;100026.84;4965632;28;20201;-42
2023/04/24 11:13:59;;;;;;;2.83;0.90;;;;;;;19.63;48.43;100032.03;4961562;28;20043;-42
2023/04/24 11:16:34;;;;;;;2.08;0.95;;;;;;;19.53;46.65;100039.31;4963355;28;20037;-44
2023/04/24 11:19:07;;;;;;;4.28;1.80;;;;;;;19.57;47.46;100032.66;4965370;28;20097;-42